sensor_id;sensor_type;location;lat;lon;timestamp;pressure;altitude;pressure_sealevel;temperature;humidity
69187;BME280;56301;56.864;60.554;2022-07-10T00:01:48;98611.34;;;24.80;57.66
69187;BME280;56301;56.864;60.554;2022-07-10T00:04:11;98616.75;;;24.80;57.90
69187;BME280;56301;56.864;60.554;2022-07-10T00:06:33;98623.03;;;24.80;57.64
69187;BME280;56301;56.864;60.554;2022-07-10T00:08:55;98615.91;;;24.79;57.96
69187;BME280;56301;56.864;60.554;2022-07-10T00:11:18;98610.50;;;24.79;57.95
69187;BME280;56301;56.864;60.554;2022-07-10T00:13:40;98607.78;;;24.79;57.95
69187;BME280;56301;56.864;60.554;2022-07-10T00:16:03;98612.38;;;24.79;57.97
69187;BME280;56301;56.864;60.554;2022-07-10T00:18:25;98614.25;;;24.78;57.83
69187;BME280;56301;56.864;60.554;2022-07-10T00:20:47;98616.75;;;24.80;57.62
69187;BME280;56301;56.864;60.554;2022-07-10T00:23:10;98615.09;;;24.79;57.65
69187;BME280;56301;56.864;60.554;2022-07-10T00:25:32;98615.09;;;24.79;57.73
69187;BME280;56301;56.864;60.554;2022-07-10T00:27:55;98619.47;;;24.80;57.51
69187;BME280;56301;56.864;60.554;2022-07-10T00:30:17;98615.91;;;24.79;58.42
69187;BME280;56301;56.864;60.554;2022-07-10T00:32:39;98620.50;;;24.79;57.24
69187;BME280;56301;56.864;60.554;2022-07-10T00:35:02;98618.63;;;24.79;58.16
69187;BME280;56301;56.864;60.554;2022-07-10T00:37:25;98615.91;;;24.79;58.21
69187;BME280;56301;56.864;60.554;2022-07-10T00:39:47;98619.66;;;24.78;58.43
69187;BME280;56301;56.864;60.554;2022-07-10T00:42:10;98631.31;;;24.79;57.63
69187;BME280;56301;56.864;60.554;2022-07-10T00:44:33;98614.25;;;24.78;58.20
69187;BME280;56301;56.864;60.554;2022-07-10T00:46:56;98619.84;;;24.77;58.16
69187;BME280;56301;56.864;60.554;2022-07-10T00:49:18;98620.50;;;24.79;57.49
69187;BME280;56301;56.864;60.554;2022-07-10T00:51:40;98631.31;;;24.79;57.49
69187;BME280;56301;56.864;60.554;2022-07-10T00:54:04;98631.31;;;24.79;57.90
69187;BME280;56301;56.864;60.554;2022-07-10T00:56:27;98626.94;;;24.78;58.07
69187;BME280;56301;56.864;60.554;2022-07-10T00:58:50;98634.03;;;24.79;58.07
69187;BME280;56301;56.864;60.554;2022-07-10T01:01:13;98632.16;;;24.79;57.90
69187;BME280;56301;56.864;60.554;2022-07-10T01:03:35;98636.72;;;24.79;58.20
69187;BME280;56301;56.864;60.554;2022-07-10T01:05:58;98643.81;;;24.80;58.23
69187;BME280;56301;56.864;60.554;2022-07-10T01:08:20;98643.81;;;24.80;57.91
69187;BME280;56301;56.864;60.554;2022-07-10T01:10:42;98637.56;;;24.79;57.72
69187;BME280;56301;56.864;60.554;2022-07-10T01:13:05;98650.25;;;24.79;58.23
69187;BME280;56301;56.864;60.554;2022-07-10T01:15:29;98650.09;;;24.80;57.77
69187;BME280;56301;56.864;60.554;2022-07-10T01:17:51;98647.56;;;24.79;58.23
69187;BME280;56301;56.864;60.554;2022-07-10T01:20:14;98642.97;;;24.79;58.17
69187;BME280;56301;56.864;60.554;2022-07-10T01:22:36;98651.09;;;24.79;58.12
69187;BME280;56301;56.864;60.554;2022-07-10T01:24:59;98649.22;;;24.80;58.26
69187;BME280;56301;56.864;60.554;2022-07-10T01:27:21;98648.22;;;24.81;57.99
69187;BME280;56301;56.864;60.554;2022-07-10T01:29:44;98651.94;;;24.80;58.30
69187;BME280;56301;56.864;60.554;2022-07-10T01:32:06;98649.06;;;24.81;57.72
69187;BME280;56301;56.864;60.554;2022-07-10T01:34:29;98654.63;;;24.80;57.66
69187;BME280;56301;56.864;60.554;2022-07-10T01:36:51;98649.22;;;24.80;58.17
69187;BME280;56301;56.864;60.554;2022-07-10T01:39:13;98650.94;;;24.81;57.66
69187;BME280;56301;56.864;60.554;2022-07-10T01:41:36;98645.50;;;24.81;57.91
69187;BME280;56301;56.864;60.554;2022-07-10T01:43:58;98659.03;;;24.81;57.75
69187;BME280;56301;56.864;60.554;2022-07-10T01:46:21;98658.84;;;24.82;58.25
69187;BME280;56301;56.864;60.554;2022-07-10T01:48:43;98652.59;;;24.82;58.30
69187;BME280;56301;56.864;60.554;2022-07-10T01:51:06;98649.88;;;24.82;58.00
69187;BME280;56301;56.864;60.554;2022-07-10T01:53:29;98652.59;;;24.82;57.96
69187;BME280;56301;56.864;60.554;2022-07-10T01:55:51;98650.72;;;24.82;57.78
69187;BME280;56301;56.864;60.554;2022-07-10T01:58:13;98649.88;;;24.82;58.04
69187;BME280;56301;56.864;60.554;2022-07-10T02:00:37;98649.88;;;24.82;58.00
69187;BME280;56301;56.864;60.554;2022-07-10T02:02:59;98648.84;;;24.83;58.28
69187;BME280;56301;56.864;60.554;2022-07-10T02:05:22;98653.44;;;24.82;57.68
69187;BME280;56301;56.864;60.554;2022-07-10T02:07:44;98655.97;;;24.84;57.92
69187;BME280;56301;56.864;60.554;2022-07-10T02:10:07;98646.97;;;24.83;57.84
69187;BME280;56301;56.864;60.554;2022-07-10T02:12:29;98649.69;;;24.83;58.00
69187;BME280;56301;56.864;60.554;2022-07-10T02:14:52;98644.28;;;24.83;57.74
69187;BME280;56301;56.864;60.554;2022-07-10T02:17:14;98648.84;;;24.83;57.88
69187;BME280;56301;56.864;60.554;2022-07-10T02:19:39;98652.22;;;24.85;58.13
69187;BME280;56301;56.864;60.554;2022-07-10T02:22:02;98652.22;;;24.85;57.89
69187;BME280;56301;56.864;60.554;2022-07-10T02:24:24;98654.72;;;24.86;58.16
69187;BME280;56301;56.864;60.554;2022-07-10T02:26:47;98644.09;;;24.85;57.83
69187;BME280;56301;56.864;60.554;2022-07-10T02:29:10;98653.91;;;24.86;57.96
69187;BME280;56301;56.864;60.554;2022-07-10T02:31:32;98660.97;;;24.87;58.19
69187;BME280;56301;56.864;60.554;2022-07-10T02:33:55;98651.84;;;24.88;58.09
69187;BME280;56301;56.864;60.554;2022-07-10T02:36:17;98650.16;;;24.87;57.46
69187;BME280;56301;56.864;60.554;2022-07-10T02:38:39;98649.16;;;24.88;57.63
69187;BME280;56301;56.864;60.554;2022-07-10T02:41:02;98652.69;;;24.88;57.75
69187;BME280;56301;56.864;60.554;2022-07-10T02:43:24;98658.94;;;24.89;57.97
69187;BME280;56301;56.864;60.554;2022-07-10T02:45:47;98655.19;;;24.90;58.16
69187;BME280;56301;56.864;60.554;2022-07-10T02:48:09;98656.03;;;24.90;58.06
69187;BME280;56301;56.864;60.554;2022-07-10T02:50:31;98655.19;;;24.90;57.59
69187;BME280;56301;56.864;60.554;2022-07-10T02:52:54;98660.59;;;24.90;58.17
69187;BME280;56301;56.864;60.554;2022-07-10T02:55:16;98665.84;;;24.91;57.50
69187;BME280;56301;56.864;60.554;2022-07-10T02:57:39;98668.56;;;24.91;57.71
69187;BME280;56301;56.864;60.554;2022-07-10T03:00:01;98661.28;;;24.92;57.63
69187;BME280;56301;56.864;60.554;2022-07-10T03:02:24;98668.34;;;24.93;57.63
69187;BME280;56301;56.864;60.554;2022-07-10T03:04:46;98663.78;;;24.93;57.71
69187;BME280;56301;56.864;60.554;2022-07-10T03:07:08;98665.66;;;24.93;58.21
69187;BME280;56301;56.864;60.554;2022-07-10T03:09:31;98664.63;;;24.94;58.07
69187;BME280;56301;56.864;60.554;2022-07-10T03:11:53;98669.03;;;24.95;58.37
69187;BME280;56301;56.864;60.554;2022-07-10T03:14:16;98669.88;;;24.95;57.56
69187;BME280;56301;56.864;60.554;2022-07-10T03:16:38;98665.28;;;24.96;58.34
69187;BME280;56301;56.864;60.554;2022-07-10T03:19:00;98666.94;;;24.97;58.31
69187;BME280;56301;56.864;60.554;2022-07-10T03:21:23;98672.38;;;24.97;57.77
69187;BME280;56301;56.864;60.554;2022-07-10T03:23:45;98672.38;;;24.97;57.48
69187;BME280;56301;56.864;60.554;2022-07-10T03:26:08;98666.13;;;24.96;57.93
69187;BME280;56301;56.864;60.554;2022-07-10T03:28:30;98674.25;;;24.96;57.88
69187;BME280;56301;56.864;60.554;2022-07-10T03:30:52;98680.47;;;24.97;58.00
69187;BME280;56301;56.864;60.554;2022-07-10T03:33:15;98682.00;;;25.00;57.74
69187;BME280;56301;56.864;60.554;2022-07-10T03:35:38;98681.16;;;24.99;57.94
69187;BME280;56301;56.864;60.554;2022-07-10T03:38:00;98675.53;;;25.01;57.40
69187;BME280;56301;56.864;60.554;2022-07-10T03:40:22;98679.91;;;25.02;58.34
69187;BME280;56301;56.864;60.554;2022-07-10T03:42:45;98680.78;;;25.02;57.48
69187;BME280;56301;56.864;60.554;2022-07-10T03:45:07;98678.91;;;25.03;58.28
69187;BME280;56301;56.864;60.554;2022-07-10T03:47:30;98677.88;;;25.04;57.63
69187;BME280;56301;56.864;60.554;2022-07-10T03:49:52;98676.84;;;25.05;57.62
69187;BME280;56301;56.864;60.554;2022-07-10T03:52:15;98677.69;;;25.05;58.06
69187;BME280;56301;56.864;60.554;2022-07-10T03:54:37;98678.53;;;25.06;58.36
69187;BME280;56301;56.864;60.554;2022-07-10T03:56:59;98682.91;;;25.07;57.55
69187;BME280;56301;56.864;60.554;2022-07-10T03:59:22;98686.47;;;25.07;57.70
69187;BME280;56301;56.864;60.554;2022-07-10T04:01:44;98680.00;;;25.08;57.92
69187;BME280;56301;56.864;60.554;2022-07-10T04:04:07;98681.88;;;25.08;58.13
69187;BME280;56301;56.864;60.554;2022-07-10T04:06:29;98679.00;;;25.09;57.39
69187;BME280;56301;56.864;60.554;2022-07-10T04:08:51;98676.13;;;25.11;57.94
69187;BME280;56301;56.864;60.554;2022-07-10T04:11:14;98681.53;;;25.11;57.18
69187;BME280;56301;56.864;60.554;2022-07-10T04:13:36;98678.63;;;25.12;57.60
69187;BME280;56301;56.864;60.554;2022-07-10T04:15:59;98681.34;;;25.12;57.22
69187;BME280;56301;56.864;60.554;2022-07-10T04:18:21;98684.06;;;25.12;57.16
69187;BME280;56301;56.864;60.554;2022-07-10T04:20:43;98679.31;;;25.14;57.88
69187;BME280;56301;56.864;60.554;2022-07-10T04:23:06;98673.06;;;25.14;57.32
69187;BME280;56301;56.864;60.554;2022-07-10T04:25:28;98679.31;;;25.14;57.73
69187;BME280;56301;56.864;60.554;2022-07-10T04:27:50;98680.97;;;25.15;57.38
69187;BME280;56301;56.864;60.554;2022-07-10T04:30:13;98675.19;;;25.18;57.70
69187;BME280;56301;56.864;60.554;2022-07-10T04:32:35;98677.69;;;25.20;57.10
69187;BME280;56301;56.864;60.554;2022-07-10T04:34:58;98668.56;;;25.21;57.20
69187;BME280;56301;56.864;60.554;2022-07-10T04:37:20;98661.00;;;25.16;57.63
69187;BME280;56301;56.864;60.554;2022-07-10T04:39:43;98671.72;;;25.25;57.32
69187;BME280;56301;56.864;60.554;2022-07-10T04:42:06;98675.28;;;25.25;57.46
69187;BME280;56301;56.864;60.554;2022-07-10T04:44:28;98675.91;;;25.27;57.27
69187;BME280;56301;56.864;60.554;2022-07-10T04:46:51;98675.72;;;25.29;57.17
69187;BME280;56301;56.864;60.554;2022-07-10T04:49:13;98672.00;;;25.30;56.83
69187;BME280;56301;56.864;60.554;2022-07-10T04:51:36;98675.34;;;25.32;56.97
69187;BME280;56301;56.864;60.554;2022-07-10T04:53:58;98674.97;;;25.35;56.42
69187;BME280;56301;56.864;60.554;2022-07-10T04:56:20;98674.78;;;25.36;56.95
69187;BME280;56301;56.864;60.554;2022-07-10T04:58:43;98680.00;;;25.38;57.10
69187;BME280;56301;56.864;60.554;2022-07-10T05:01:05;98681.31;;;25.42;57.08
69187;BME280;56301;56.864;60.554;2022-07-10T05:03:28;98678.41;;;25.43;57.08
69187;BME280;56301;56.864;60.554;2022-07-10T05:05:50;98670.06;;;25.45;56.61
69187;BME280;56301;56.864;60.554;2022-07-10T05:08:13;98676.16;;;25.47;56.49
69187;BME280;56301;56.864;60.554;2022-07-10T05:10:35;98677.66;;;25.50;56.53
69187;BME280;56301;56.864;60.554;2022-07-10T05:12:57;98681.84;;;25.52;56.48
69187;BME280;56301;56.864;60.554;2022-07-10T05:15:20;98685.19;;;25.54;56.77
69187;BME280;56301;56.864;60.554;2022-07-10T05:17:42;98686.69;;;25.57;56.90
69187;BME280;56301;56.864;60.554;2022-07-10T05:20:05;98690.03;;;25.59;56.19
69187;BME280;56301;56.864;60.554;2022-07-10T05:22:27;98689.00;;;25.60;56.15
69187;BME280;56301;56.864;60.554;2022-07-10T05:24:50;98687.78;;;25.62;56.67
69187;BME280;56301;56.864;60.554;2022-07-10T05:27:12;98696.56;;;25.64;56.43
69187;BME280;56301;56.864;60.554;2022-07-10T05:29:34;98689.09;;;25.66;56.22
69187;BME280;56301;56.864;60.554;2022-07-10T05:31:57;98691.63;;;25.68;56.65
69187;BME280;56301;56.864;60.554;2022-07-10T05:34:19;98694.13;;;25.69;56.09
69187;BME280;56301;56.864;60.554;2022-07-10T05:36:42;98692.91;;;25.72;56.21
69187;BME280;56301;56.864;60.554;2022-07-10T05:39:04;98693.38;;;25.76;56.60
69187;BME280;56301;56.864;60.554;2022-07-10T05:41:27;98689.63;;;25.77;56.13
69187;BME280;56301;56.864;60.554;2022-07-10T05:43:50;98694.69;;;25.80;56.18
69187;BME280;56301;56.864;60.554;2022-07-10T05:46:12;98695.34;;;25.82;55.88
69187;BME280;56301;56.864;60.554;2022-07-10T05:48:34;98696.81;;;25.84;56.00
69187;BME280;56301;56.864;60.554;2022-07-10T05:50:57;98701.03;;;25.87;56.50
69187;BME280;56301;56.864;60.554;2022-07-10T05:53:19;98696.88;;;25.91;56.17
69187;BME280;56301;56.864;60.554;2022-07-10T05:55:42;98698.38;;;25.93;55.50
69187;BME280;56301;56.864;60.554;2022-07-10T05:58:04;98699.84;;;25.96;56.14
69187;BME280;56301;56.864;60.554;2022-07-10T06:00:26;98704.03;;;25.99;56.49
69187;BME280;56301;56.864;60.554;2022-07-10T06:02:49;98706.38;;;26.02;55.79
69187;BME280;56301;56.864;60.554;2022-07-10T06:05:11;98689.91;;;26.03;56.28
69187;BME280;56301;56.864;60.554;2022-07-10T06:07:34;98699.34;;;26.07;55.34
69187;BME280;56301;56.864;60.554;2022-07-10T06:09:56;98678.59;;;26.00;55.50
69187;BME280;56301;56.864;60.554;2022-07-10T06:12:19;98695.22;;;26.11;56.06
69187;BME280;56301;56.864;60.554;2022-07-10T06:14:41;98693.78;;;26.15;55.69
69187;BME280;56301;56.864;60.554;2022-07-10T06:17:04;98694.03;;;26.21;54.83
69187;BME280;56301;56.864;60.554;2022-07-10T06:19:26;98686.56;;;26.23;55.43
69187;BME280;56301;56.864;60.554;2022-07-10T06:21:49;98689.19;;;26.16;55.79
69187;BME280;56301;56.864;60.554;2022-07-10T06:24:11;98689.78;;;26.11;56.16
69187;BME280;56301;56.864;60.554;2022-07-10T06:26:33;98695.41;;;26.10;56.25
69187;BME280;56301;56.864;60.554;2022-07-10T06:28:56;98692.88;;;26.08;56.60
69187;BME280;56301;56.864;60.554;2022-07-10T06:31:18;98688.22;;;26.02;55.71
69187;BME280;56301;56.864;60.554;2022-07-10T06:33:41;98681.53;;;25.98;56.79
69187;BME280;56301;56.864;60.554;2022-07-10T06:36:03;98685.66;;;25.94;56.77
69187;BME280;56301;56.864;60.554;2022-07-10T06:38:26;98681.44;;;25.91;56.98
69187;BME280;56301;56.864;60.554;2022-07-10T06:40:48;98679.84;;;25.97;56.01
69187;BME280;56301;56.864;60.554;2022-07-10T06:43:11;98682.75;;;25.96;55.87
69187;BME280;56301;56.864;60.554;2022-07-10T06:45:34;98684.00;;;25.93;56.63
69187;BME280;56301;56.864;60.554;2022-07-10T06:47:56;98682.44;;;26.05;56.42
69187;BME280;56301;56.864;60.554;2022-07-10T06:50:19;98685.72;;;26.01;56.68
69187;BME280;56301;56.864;60.554;2022-07-10T06:52:41;98677.44;;;26.09;56.38
69187;BME280;56301;56.864;60.554;2022-07-10T06:55:04;98683.56;;;26.17;56.08
69187;BME280;56301;56.864;60.554;2022-07-10T06:57:27;98681.75;;;26.25;55.56
69187;BME280;56301;56.864;60.554;2022-07-10T06:59:49;98675.31;;;26.26;55.54
69187;BME280;56301;56.864;60.554;2022-07-10T07:02:12;98670.53;;;26.28;55.08
69187;BME280;56301;56.864;60.554;2022-07-10T07:04:34;98670.13;;;26.31;55.68
69187;BME280;56301;56.864;60.554;2022-07-10T07:06:57;98678.88;;;25.47;54.50
69187;BME280;56301;56.864;60.554;2022-07-10T07:09:19;98683.00;;;24.31;54.15
69187;BME280;56301;56.864;60.554;2022-07-10T07:11:41;98687.72;;;23.60;54.05
69187;BME280;56301;56.864;60.554;2022-07-10T07:14:04;98692.22;;;23.05;51.83
69187;BME280;56301;56.864;60.554;2022-07-10T07:16:26;98682.31;;;22.81;52.07
69187;BME280;56301;56.864;60.554;2022-07-10T07:18:49;98691.75;;;22.94;52.30
69187;BME280;56301;56.864;60.554;2022-07-10T07:21:11;98697.13;;;23.02;52.78
69187;BME280;56301;56.864;60.554;2022-07-10T07:23:33;98697.41;;;23.15;53.51
69187;BME280;56301;56.864;60.554;2022-07-10T07:25:56;98701.72;;;23.33;54.13
69187;BME280;56301;56.864;60.554;2022-07-10T07:28:19;98691.22;;;23.38;55.34
69187;BME280;56301;56.864;60.554;2022-07-10T07:30:42;98695.94;;;23.44;55.75
69187;BME280;56301;56.864;60.554;2022-07-10T07:33:04;98692.56;;;23.42;56.78
69187;BME280;56301;56.864;60.554;2022-07-10T07:35:27;98696.19;;;23.57;56.63
69187;BME280;56301;56.864;60.554;2022-07-10T07:37:50;98681.91;;;23.80;58.79
69187;BME280;56301;56.864;60.554;2022-07-10T07:40:14;98683.75;;;24.02;59.43
69187;BME280;56301;56.864;60.554;2022-07-10T07:42:36;98691.63;;;23.89;58.38
69187;BME280;56301;56.864;60.554;2022-07-10T07:44:59;98697.94;;;23.42;57.37
69187;BME280;56301;56.864;60.554;2022-07-10T07:47:21;98699.91;;;23.25;57.08
69187;BME280;56301;56.864;60.554;2022-07-10T07:49:43;98701.63;;;23.49;57.93
69187;BME280;56301;56.864;60.554;2022-07-10T07:52:06;98692.81;;;23.55;59.07
69187;BME280;56301;56.864;60.554;2022-07-10T07:54:28;98697.53;;;23.61;59.35
69187;BME280;56301;56.864;60.554;2022-07-10T07:56:51;98690.22;;;23.70;59.79
69187;BME280;56301;56.864;60.554;2022-07-10T07:59:13;98689.66;;;23.83;60.06
69187;BME280;56301;56.864;60.554;2022-07-10T08:01:36;98686.88;;;23.91;60.34
69187;BME280;56301;56.864;60.554;2022-07-10T08:03:58;98686.47;;;24.02;60.11
69187;BME280;56301;56.864;60.554;2022-07-10T08:06:20;98681.78;;;23.96;60.08
69187;BME280;56301;56.864;60.554;2022-07-10T08:08:43;98678.94;;;23.89;60.54
69187;BME280;56301;56.864;60.554;2022-07-10T08:11:05;98680.03;;;23.80;60.58
69187;BME280;56301;56.864;60.554;2022-07-10T08:13:28;98676.19;;;23.74;60.52
69187;BME280;56301;56.864;60.554;2022-07-10T08:15:50;98685.03;;;23.68;61.19
69187;BME280;56301;56.864;60.554;2022-07-10T08:18:12;98683.06;;;23.54;60.42
69187;BME280;56301;56.864;60.554;2022-07-10T08:20:35;98686.78;;;23.53;60.91
69187;BME280;56301;56.864;60.554;2022-07-10T08:22:57;98689.72;;;23.66;60.66
69187;BME280;56301;56.864;60.554;2022-07-10T08:25:20;98687.72;;;23.91;61.61
69187;BME280;56301;56.864;60.554;2022-07-10T08:27:42;98696.72;;;24.07;61.72
69187;BME280;56301;56.864;60.554;2022-07-10T08:30:05;98694.81;;;24.15;61.84
69187;BME280;56301;56.864;60.554;2022-07-10T08:32:28;98702.78;;;23.54;60.37
69187;BME280;56301;56.864;60.554;2022-07-10T08:34:50;98693.13;;;23.29;61.06
69187;BME280;56301;56.864;60.554;2022-07-10T08:37:12;98696.78;;;23.44;61.47
69187;BME280;56301;56.864;60.554;2022-07-10T08:39:35;98698.28;;;23.47;62.61
69187;BME280;56301;56.864;60.554;2022-07-10T08:41:58;98688.41;;;23.62;62.43
69187;BME280;56301;56.864;60.554;2022-07-10T08:44:20;98685.94;;;23.84;62.97
69187;BME280;56301;56.864;60.554;2022-07-10T08:46:43;98685.44;;;24.03;63.09
69187;BME280;56301;56.864;60.554;2022-07-10T08:49:07;98687.69;;;24.14;62.93
69187;BME280;56301;56.864;60.554;2022-07-10T08:51:35;98682.69;;;24.11;61.75
69187;BME280;56301;56.864;60.554;2022-07-10T08:53:58;98691.50;;;23.51;61.12
69187;BME280;56301;56.864;60.554;2022-07-10T08:56:22;98689.59;;;23.28;61.36
69187;BME280;56301;56.864;60.554;2022-07-10T08:58:44;98679.25;;;23.40;62.15
69187;BME280;56301;56.864;60.554;2022-07-10T09:01:08;98680.00;;;23.57;62.36
69187;BME280;56301;56.864;60.554;2022-07-10T09:03:30;98678.84;;;23.83;63.27
69187;BME280;56301;56.864;60.554;2022-07-10T09:05:53;98676.31;;;24.04;62.27
69187;BME280;56301;56.864;60.554;2022-07-10T09:08:21;98677.84;;;24.21;62.52
69187;BME280;56301;56.864;60.554;2022-07-10T09:10:44;98670.47;;;24.15;61.78
69187;BME280;56301;56.864;60.554;2022-07-10T09:13:06;98668.22;;;23.50;60.93
69187;BME280;56301;56.864;60.554;2022-07-10T09:15:30;98668.31;;;23.34;61.68
69187;BME280;56301;56.864;60.554;2022-07-10T09:17:56;98666.41;;;23.42;62.05
69187;BME280;56301;56.864;60.554;2022-07-10T09:20:29;98675.31;;;23.51;62.54
69187;BME280;56301;56.864;60.554;2022-07-10T09:22:52;98675.81;;;23.77;63.13
69187;BME280;56301;56.864;60.554;2022-07-10T09:25:14;98681.13;;;23.94;62.96
69187;BME280;56301;56.864;60.554;2022-07-10T09:27:50;98691.78;;;24.10;62.62
69187;BME280;56301;56.864;60.554;2022-07-10T09:30:12;98691.38;;;24.21;62.54
69187;BME280;56301;56.864;60.554;2022-07-10T09:32:35;98695.69;;;24.31;62.32
69187;BME280;56301;56.864;60.554;2022-07-10T09:34:57;98701.22;;;23.91;61.33
69187;BME280;56301;56.864;60.554;2022-07-10T09:39:56;98694.59;;;23.40;62.20
69187;BME280;56301;56.864;60.554;2022-07-10T09:42:29;98694.25;;;23.43;62.70
69187;BME280;56301;56.864;60.554;2022-07-10T09:44:51;98694.81;;;23.69;63.16
69187;BME280;56301;56.864;60.554;2022-07-10T09:47:23;98705.13;;;23.89;62.65
69187;BME280;56301;56.864;60.554;2022-07-10T09:49:45;98699.25;;;24.08;61.75
69187;BME280;56301;56.864;60.554;2022-07-10T09:52:08;98708.25;;;24.23;61.80
69187;BME280;56301;56.864;60.554;2022-07-10T09:54:30;98712.19;;;24.36;61.40
69187;BME280;56301;56.864;60.554;2022-07-10T09:56:53;98714.00;;;24.43;61.00
69187;BME280;56301;56.864;60.554;2022-07-10T09:59:16;98712.03;;;24.14;60.05
69187;BME280;56301;56.864;60.554;2022-07-10T10:01:49;98731.06;;;23.36;60.15
69187;BME280;56301;56.864;60.554;2022-07-10T10:04:12;98726.72;;;23.26;61.36
69187;BME280;56301;56.864;60.554;2022-07-10T10:06:36;98718.94;;;23.32;62.08
69187;BME280;56301;56.864;60.554;2022-07-10T10:11:27;98720.63;;;23.72;62.49
69187;BME280;56301;56.864;60.554;2022-07-10T10:13:49;98709.22;;;23.85;61.92
69187;BME280;56301;56.864;60.554;2022-07-10T10:16:12;98719.19;;;24.07;61.69
69187;BME280;56301;56.864;60.554;2022-07-10T10:18:35;98716.47;;;23.84;59.70
69187;BME280;56301;56.864;60.554;2022-07-10T10:20:58;98722.66;;;23.30;59.29
69187;BME280;56301;56.864;60.554;2022-07-10T10:23:21;98714.66;;;22.90;57.83
69187;BME280;56301;56.864;60.554;2022-07-10T10:25:44;98716.91;;;22.62;56.97
69187;BME280;56301;56.864;60.554;2022-07-10T10:28:08;98719.28;;;22.40;56.26
69187;BME280;56301;56.864;60.554;2022-07-10T10:30:30;98725.88;;;22.29;54.90
69187;BME280;56301;56.864;60.554;2022-07-10T10:32:53;98723.34;;;22.28;54.75
69187;BME280;56301;56.864;60.554;2022-07-10T10:37:56;98712.25;;;22.23;54.22
69187;BME280;56301;56.864;60.554;2022-07-10T10:40:32;98715.06;;;22.13;54.45
69187;BME280;56301;56.864;60.554;2022-07-10T10:42:55;98712.09;;;22.16;53.94
69187;BME280;56301;56.864;60.554;2022-07-10T10:45:38;98719.78;;;22.11;54.08
69187;BME280;56301;56.864;60.554;2022-07-10T10:51:04;98712.41;;;22.29;53.25
69187;BME280;56301;56.864;60.554;2022-07-10T10:53:20;98707.66;;;22.07;52.60
69187;BME280;56301;56.864;60.554;2022-07-10T10:58:24;98712.34;;;21.80;53.76
69187;BME280;56301;56.864;60.554;2022-07-10T11:00:46;98721.16;;;22.31;56.22
69187;BME280;56301;56.864;60.554;2022-07-10T11:03:16;98728.22;;;22.57;57.39
69187;BME280;56301;56.864;60.554;2022-07-10T11:05:39;98741.34;;;22.76;57.85
69187;BME280;56301;56.864;60.554;2022-07-10T11:08:02;98742.66;;;23.05;58.65
69187;BME280;56301;56.864;60.554;2022-07-10T11:15:22;98750.31;;;23.33;59.60
69187;BME280;56301;56.864;60.554;2022-07-10T11:17:44;98751.34;;;23.32;59.23
69187;BME280;56301;56.864;60.554;2022-07-10T11:20:08;98747.97;;;23.29;58.91
69187;BME280;56301;56.864;60.554;2022-07-10T11:27:52;98734.84;;;23.18;57.81
69187;BME280;56301;56.864;60.554;2022-07-10T11:30:20;98731.19;;;23.03;57.09
69187;BME280;56301;56.864;60.554;2022-07-10T11:32:43;98732.72;;;22.97;56.92
69187;BME280;56301;56.864;60.554;2022-07-10T11:35:12;98722.75;;;22.90;56.28
69187;BME280;56301;56.864;60.554;2022-07-10T11:37:34;98722.47;;;22.93;56.57
69187;BME280;56301;56.864;60.554;2022-07-10T11:40:10;98719.69;;;23.09;57.10
69187;BME280;56301;56.864;60.554;2022-07-10T11:42:47;98720.19;;;23.21;57.96
69187;BME280;56301;56.864;60.554;2022-07-10T11:45:25;98724.50;;;23.30;58.72
69187;BME280;56301;56.864;60.554;2022-07-10T11:47:48;98724.59;;;23.45;59.18
69187;BME280;56301;56.864;60.554;2022-07-10T11:50:10;98720.41;;;23.42;59.22
69187;BME280;56301;56.864;60.554;2022-07-10T11:52:35;98720.91;;;23.46;59.44
69187;BME280;56301;56.864;60.554;2022-07-10T11:54:57;98728.34;;;23.44;60.31
69187;BME280;56301;56.864;60.554;2022-07-10T11:57:38;98726.97;;;23.48;59.98
69187;BME280;56301;56.864;60.554;2022-07-10T12:00:00;98722.59;;;23.47;59.80
69187;BME280;56301;56.864;60.554;2022-07-10T12:02:23;98716.78;;;23.58;59.92
69187;BME280;56301;56.864;60.554;2022-07-10T12:04:45;98723.69;;;23.61;60.63
69187;BME280;56301;56.864;60.554;2022-07-10T12:07:07;98717.84;;;23.49;61.01
69187;BME280;56301;56.864;60.554;2022-07-10T12:09:30;98710.94;;;23.46;61.09
69187;BME280;56301;56.864;60.554;2022-07-10T12:11:59;98711.78;;;23.47;61.85
69187;BME280;56301;56.864;60.554;2022-07-10T12:14:21;98705.69;;;23.53;61.46
69187;BME280;56301;56.864;60.554;2022-07-10T12:16:45;98703.97;;;23.52;62.09
69187;BME280;56301;56.864;60.554;2022-07-10T12:19:08;98700.28;;;23.53;61.86
69187;BME280;56301;56.864;60.554;2022-07-10T12:21:31;98688.09;;;23.57;61.86
69187;BME280;56301;56.864;60.554;2022-07-10T12:23:54;98696.19;;;23.57;61.73
69187;BME280;56301;56.864;60.554;2022-07-10T12:26:16;98700.09;;;23.54;62.24
69187;BME280;56301;56.864;60.554;2022-07-10T12:28:52;98707.00;;;23.57;61.85
69187;BME280;56301;56.864;60.554;2022-07-10T12:31:21;98695.22;;;23.50;61.78
69187;BME280;56301;56.864;60.554;2022-07-10T12:33:43;98700.09;;;23.54;61.64
69187;BME280;56301;56.864;60.554;2022-07-10T12:36:12;98700.56;;;23.58;61.44
69187;BME280;56301;56.864;60.554;2022-07-10T12:38:34;98694.50;;;23.56;61.86
69187;BME280;56301;56.864;60.554;2022-07-10T12:41:09;98706.28;;;23.63;61.57
69187;BME280;56301;56.864;60.554;2022-07-10T12:43:32;98702.25;;;23.59;61.96
69187;BME280;56301;56.864;60.554;2022-07-10T12:48:35;98706.34;;;23.55;61.36
69187;BME280;56301;56.864;60.554;2022-07-10T12:51:18;98706.69;;;23.52;61.40
69187;BME280;56301;56.864;60.554;2022-07-10T12:53:46;98699.13;;;23.47;61.70
69187;BME280;56301;56.864;60.554;2022-07-10T12:56:09;98701.97;;;23.54;61.35